Time;durP1;ratioP1;P1;durP2;ratioP2;P2;SDS_P1;SDS_P2;PMS_P1;PMS_P2;Temp;Humidity;BMP_temperature;BMP_pressure;BME280_temperature;BME280_humidity;BME280_pressure;Samples;Min_cycle;Max_cycle;Signal;HPM_P1;HPM_P2
2023/10/13 00:01:23;;;;;;;5.85;3.38;;;;;;;20.98;63.38;101144.19;4957583;28;20026;-67
2023/10/13 00:03:51;;;;;;;5.28;3.10;;;;;;;20.97;63.08;101144.34;4958490;28;20031;-67
2023/10/13 00:06:18;;;;;;;5.45;3.20;;;;;;;20.98;63.03;101148.63;4958336;28;20031;-68
2023/10/13 00:08:43;;;;;;;5.30;3.10;;;;;;;20.98;63.22;101148.63;4957991;28;20051;-66
2023/10/13 00:11:12;;;;;;;4.97;2.92;;;;;;;20.95;63.29;101138.31;4958464;28;20041;-67
2023/10/13 00:13:50;;;;;;;5.53;2.92;;;;;;;20.95;62.98;101136.53;4957525;28;20063;-67
2023/10/13 00:16:30;;;;;;;5.07;2.88;;;;;;;20.95;63.21;101133.88;4958244;28;20098;-68
2023/10/13 00:18:57;;;;;;;5.32;2.80;;;;;;;20.95;63.26;101133.00;4958312;28;20043;-66
2023/10/13 00:21:33;;;;;;;5.90;3.20;;;;;;;20.96;62.95;101132.88;4957870;28;20078;-67
2023/10/13 00:24:05;;;;;;;5.15;2.92;;;;;;;20.96;63.11;101121.44;4958185;28;20039;-66
2023/10/13 00:26:35;;;;;;;5.65;3.15;;;;;;;20.96;63.12;101124.09;4957614;28;20031;-68
2023/10/13 00:31:40;;;;;;;5.63;2.67;;;;;;;20.93;62.88;101122.56;4958482;28;20035;-67
2023/10/13 00:34:15;;;;;;;4.68;2.72;;;;;;;20.95;63.18;101122.41;4958364;28;20443;-67
2023/10/13 00:39:45;;;;;;;6.20;3.00;;;;;;;20.97;63.16;101112.53;4965174;28;20042;-67
2023/10/13 00:42:23;;;;;;;6.30;3.10;;;;;;;20.94;63.42;101107.50;4965076;28;20035;-67
2023/10/13 00:44:49;;;;;;;4.78;2.55;;;;;;;20.93;62.92;101108.47;4960613;28;20055;-66
2023/10/13 00:47:48;;;;;;;5.15;2.60;;;;;;;20.93;63.17;101100.53;4957833;28;20030;-66
2023/10/13 00:50:11;;;;;;;5.90;3.22;;;;;;;20.94;63.20;101102.22;4957902;28;20491;-66
2023/10/13 00:52:37;;;;;;;4.70;2.57;;;;;;;20.93;63.22;101100.53;4957606;28;20043;-67
2023/10/13 00:55:04;;;;;;;5.15;2.63;;;;;;;20.93;63.21;101095.22;4957489;28;20043;-67
2023/10/13 00:57:30;;;;;;;5.18;3.15;;;;;;;20.91;62.96;101092.72;4958109;28;20053;-67
2023/10/13 00:59:59;;;;;;;5.93;3.03;;;;;;;20.92;63.23;101089.09;4957914;28;20532;-67
2023/10/13 01:02:40;;;;;;;4.78;2.90;;;;;;;20.91;62.82;101078.66;4957700;28;20031;-68
2023/10/13 01:05:19;;;;;;;4.90;2.75;;;;;;;20.92;63.36;101083.81;4957786;28;20078;-67
2023/10/13 01:07:50;;;;;;;4.55;2.75;;;;;;;20.92;63.10;101085.59;4988952;28;20166;-68
2023/10/13 01:10:16;;;;;;;4.65;2.55;;;;;;;20.92;62.77;101081.16;4957829;28;20031;-67
2023/10/13 01:12:47;;;;;;;5.10;2.55;;;;;;;20.91;63.23;101076.00;4957226;28;20031;-66
2023/10/13 01:15:16;;;;;;;7.43;2.63;;;;;;;20.91;63.21;101082.13;4957618;28;20023;-69
2023/10/13 01:17:45;;;;;;;4.82;2.80;;;;;;;20.92;62.85;101067.06;4964599;28;20034;-66
2023/10/13 01:20:18;;;;;;;4.70;2.70;;;;;;;20.90;63.07;101063.72;4964156;28;20505;-67
2023/10/13 01:22:43;;;;;;;5.10;2.60;;;;;;;20.90;63.17;101056.59;4957867;28;20031;-66
2023/10/13 01:25:12;;;;;;;5.38;2.50;;;;;;;20.90;63.06;101053.13;4957932;28;20439;-68
2023/10/13 01:27:38;;;;;;;5.93;2.83;;;;;;;20.90;63.08;101046.00;4957744;28;20388;-68
2023/10/13 01:30:22;;;;;;;5.05;2.92;;;;;;;20.89;63.22;101038.22;4957685;28;20039;-67
2023/10/13 01:32:51;;;;;;;5.60;2.60;;;;;;;20.91;63.01;101044.22;4957071;28;20050;-67
2023/10/13 01:35:27;;;;;;;5.35;2.38;;;;;;;20.91;62.88;101041.56;4957525;28;20035;-67
2023/10/13 01:37:52;;;;;;;5.95;2.90;;;;;;;20.90;62.86;101029.28;4957163;28;20507;-67
2023/10/13 01:40:20;;;;;;;5.38;2.45;;;;;;;20.89;63.13;101024.97;4958676;28;20026;-67
2023/10/13 01:42:46;;;;;;;5.13;2.42;;;;;;;20.90;63.22;101023.97;4961020;28;20027;-67
2023/10/13 01:45:13;;;;;;;5.22;2.40;;;;;;;20.87;63.09;101014.50;4960870;28;20377;-67
2023/10/13 01:47:39;;;;;;;4.72;2.70;;;;;;;20.87;62.99;101011.88;4960671;28;20484;-67
2023/10/13 01:50:19;;;;;;;5.90;2.70;;;;;;;20.89;63.35;101007.25;4960731;28;20038;-67
2023/10/13 01:52:44;;;;;;;4.47;2.30;;;;;;;20.86;63.35;101007.53;4960968;28;20118;-67
2023/10/13 01:55:11;;;;;;;4.83;2.53;;;;;;;20.89;63.05;101004.59;4959958;28;20427;-66
2023/10/13 01:57:36;;;;;;;5.57;2.47;;;;;;;20.88;62.97;101002.09;4960808;28;20695;-66
2023/10/13 02:00:18;;;;;;;4.10;2.20;;;;;;;20.88;62.96;100994.16;4960742;28;20121;-66
2023/10/13 02:02:45;;;;;;;4.45;2.30;;;;;;;20.88;63.11;100988.84;4960679;28;20399;-67
2023/10/13 02:05:10;;;;;;;5.93;2.67;;;;;;;20.87;63.06;100993.31;4960371;28;20043;-67
2023/10/13 02:07:38;;;;;;;5.03;2.38;;;;;;;20.87;62.83;100981.88;4960044;28;20035;-66
2023/10/13 02:10:05;;;;;;;4.55;2.42;;;;;;;20.89;63.32;100987.88;4960691;28;20034;-67
2023/10/13 02:12:42;;;;;;;4.25;2.30;;;;;;;20.88;62.82;100983.56;4960467;28;20093;-66
2023/10/13 02:15:12;;;;;;;4.35;2.50;;;;;;;20.87;63.39;100977.44;4960309;28;20038;-66
2023/10/13 02:17:41;;;;;;;6.15;2.70;;;;;;;20.86;62.89;100977.56;4960888;28;20035;-66
2023/10/13 02:20:15;;;;;;;5.13;2.53;;;;;;;20.87;62.89;100973.94;4960359;28;20079;-69
2023/10/13 02:22:48;;;;;;;4.85;2.40;;;;;;;20.87;62.99;100980.09;4960463;28;20106;-67
2023/10/13 02:25:34;;;;;;;4.40;2.30;;;;;;;20.87;63.20;100980.09;4960079;28;20415;-66
2023/10/13 02:28:00;;;;;;;6.30;2.50;;;;;;;20.87;63.24;100972.13;4960008;28;20027;-67
2023/10/13 02:30:29;;;;;;;4.90;2.55;;;;;;;20.86;62.93;100965.16;4960112;28;20485;-67
2023/10/13 02:32:55;;;;;;;5.88;2.95;;;;;;;20.86;63.06;100964.31;4959940;28;20051;-66
2023/10/13 02:35:29;;;;;;;5.55;2.67;;;;;;;20.86;62.92;100961.69;4960044;28;20169;-67
2023/10/13 02:37:57;;;;;;;7.70;2.55;;;;;;;20.86;63.17;100956.38;4959989;28;20414;-66
2023/10/13 02:40:23;;;;;;;5.55;2.63;;;;;;;20.86;62.96;100959.84;4959210;28;20035;-66
2023/10/13 02:42:49;;;;;;;4.00;2.40;;;;;;;20.86;62.89;100946.59;4959459;28;20023;-66
2023/10/13 02:45:15;;;;;;;5.45;2.60;;;;;;;20.85;63.02;100931.69;4959576;28;20504;-66
2023/10/13 02:47:43;;;;;;;5.35;2.85;;;;;;;20.85;63.02;100926.38;4960328;28;20046;-66
2023/10/13 02:50:12;;;;;;;6.10;2.70;;;;;;;20.84;63.24;100922.91;4959699;28;20164;-66
2023/10/13 02:52:41;;;;;;;6.53;2.90;;;;;;;20.84;62.89;100914.13;4959508;28;20038;-67
2023/10/13 02:55:09;;;;;;;6.07;2.80;;;;;;;20.83;62.83;100900.03;4959648;28;20035;-66
2023/10/13 02:57:35;;;;;;;4.57;2.55;;;;;;;20.86;63.14;100900.75;4959616;28;20173;-66
2023/10/13 03:00:12;;;;;;;5.72;2.70;;;;;;;20.84;63.01;100907.03;4959572;28;20114;-67
2023/10/13 03:02:43;;;;;;;6.53;2.63;;;;;;;20.86;63.13;100900.75;4959495;28;20039;-67
2023/10/13 03:05:09;;;;;;;6.30;3.10;;;;;;;20.86;62.97;100890.16;4959596;28;20047;-66
2023/10/13 03:07:36;;;;;;;4.95;3.00;;;;;;;20.84;63.36;100875.22;4965472;28;20039;-67
2023/10/13 03:10:09;;;;;;;5.90;3.20;;;;;;;20.84;63.25;100877.88;4959244;28;20027;-67
2023/10/13 03:12:37;;;;;;;5.07;3.10;;;;;;;20.82;63.17;100866.59;4959251;28;20384;-66
2023/10/13 03:15:14;;;;;;;5.50;2.97;;;;;;;20.83;63.19;100862.94;4959092;28;20676;-67
2023/10/13 03:17:43;;;;;;;5.18;2.95;;;;;;;20.82;63.30;100863.94;4959177;28;20357;-67
2023/10/13 03:20:15;;;;;;;4.93;2.90;;;;;;;20.81;62.89;100854.31;4959202;28;20034;-67
2023/10/13 03:22:47;;;;;;;4.75;2.95;;;;;;;20.82;63.00;100847.19;4959182;28;20472;-66
2023/10/13 03:25:17;;;;;;;6.32;3.10;;;;;;;20.83;62.88;100851.53;4959556;28;20075;-67
2023/10/13 03:30:18;;;;;;;6.20;3.47;;;;;;;20.84;63.05;100837.31;4958985;28;20031;-67
2023/10/13 03:32:46;;;;;;;5.53;2.70;;;;;;;20.83;63.00;100825.06;4957507;28;20134;-66
2023/10/13 03:35:17;;;;;;;5.30;3.35;;;;;;;20.81;63.33;100817.25;4973728;28;20046;-67
2023/10/13 03:37:42;;;;;;;5.65;3.40;;;;;;;20.82;63.06;100818.94;4958938;28;20035;-67
2023/10/13 03:45:43;;;;;;;;;;;;;;;20.87;63.07;100804.41;4959376;28;20090;-65
2023/10/13 03:48:21;;;;;;;6.45;3.40;;;;;;;20.85;63.08;100796.59;4958915;28;19918;-66
2023/10/13 03:50:48;;;;;;;6.88;3.38;;;;;;;20.84;63.27;100798.41;4958867;28;20042;-67
2023/10/13 03:53:14;;;;;;;5.80;3.75;;;;;;;20.82;63.28;100792.44;4958622;28;20062;-66
2023/10/13 03:55:40;;;;;;;6.57;3.72;;;;;;;20.82;63.54;100791.59;4958627;28;20472;-66
2023/10/13 03:58:06;;;;;;;6.30;3.58;;;;;;;20.81;63.08;100785.47;4958621;28;20034;-66
2023/10/13 04:00:32;;;;;;;7.70;3.30;;;;;;;20.82;63.25;100781.00;4958339;28;20035;-66
2023/10/13 04:03:08;;;;;;;5.60;3.55;;;;;;;20.81;63.18;100769.56;4971662;28;20102;-67
2023/10/13 04:32:28;;;;;;;7.95;4.05;;;;;;;20.81;63.38;100751.03;4958368;28;20057;-67
2023/10/13 04:34:57;;;;;;;7.80;3.70;;;;;;;20.81;63.44;100748.38;4957608;28;20050;-65
2023/10/13 04:37:29;;;;;;;5.85;3.55;;;;;;;20.80;63.40;100752.00;4957991;28;20031;-66
2023/10/13 04:40:09;;;;;;;6.53;3.45;;;;;;;20.79;63.43;100749.50;4958307;28;20595;-67
2023/10/13 04:43:32;;;;;;;5.90;3.53;;;;;;;20.79;63.75;100741.56;4958166;28;20039;-66
2023/10/13 04:48:27;;;;;;;6.15;3.75;;;;;;;20.78;63.47;100738.06;4957948;28;20138;-66
2023/10/13 04:51:34;;;;;;;6.32;3.50;;;;;;;20.80;63.78;100744.06;4981799;28;20243;-65
2023/10/13 04:54:04;;;;;;;6.88;2.90;;;;;;;20.79;63.65;100739.75;4956167;28;20058;-66
2023/10/13 04:56:59;;;;;;;6.38;2.95;;;;;;;20.81;63.49;100745.72;4957911;28;20027;-66
2023/10/13 04:59:37;;;;;;;5.95;3.47;;;;;;;20.82;63.48;100735.97;4957866;28;20054;-66
2023/10/13 05:51:43;;;;;;;4.20;2.30;;;;;;;20.77;64.02;100637.59;4960520;28;20043;-67
2023/10/13 06:29:55;;;;;;;5.30;2.65;;;;;;;20.78;63.73;100631.31;4960380;28;20053;-66
2023/10/13 06:32:25;;;;;;;7.05;2.70;;;;;;;20.76;64.05;100626.16;4959773;28;20051;-68
2023/10/13 06:34:57;;;;;;;5.63;2.38;;;;;;;20.75;64.32;100621.03;4960026;28;20037;-66
2023/10/13 06:37:26;;;;;;;5.35;2.50;;;;;;;20.75;64.50;100621.03;4959711;28;20056;-66
2023/10/13 06:39:56;;;;;;;5.78;2.47;;;;;;;20.75;64.20;100613.06;4959517;28;20400;-66
2023/10/13 06:42:27;;;;;;;5.35;2.92;;;;;;;20.75;63.75;100605.13;4959571;28;20027;-65
2023/10/13 06:44:54;;;;;;;5.07;2.75;;;;;;;20.76;64.44;100601.47;4959627;28;20042;-65
2023/10/13 06:47:21;;;;;;;7.00;2.60;;;;;;;20.75;64.35;100594.53;4959479;28;20031;-65
2023/10/13 06:49:48;;;;;;;6.05;2.60;;;;;;;20.76;64.02;100591.75;4959883;28;20027;-66
2023/10/13 06:52:14;;;;;;;5.15;2.70;;;;;;;20.76;64.24;100586.44;4959363;28;20042;-65
2023/10/13 06:54:40;;;;;;;4.40;2.45;;;;;;;20.76;64.30;100585.59;4959245;28;20047;-65
2023/10/13 06:57:10;;;;;;;4.88;2.35;;;;;;;20.78;64.27;100595.06;4959445;28;20038;-66
2023/10/13 06:59:36;;;;;;;6.50;2.90;;;;;;;20.80;64.40;100593.09;4959645;28;20372;-66
2023/10/13 07:02:05;;;;;;;7.45;2.60;;;;;;;20.81;64.09;100583.34;4959564;28;20074;-66
2023/10/13 07:04:30;;;;;;;6.70;2.40;;;;;;;20.80;64.61;100579.84;4959398;28;20027;-66
2023/10/13 07:06:56;;;;;;;5.07;2.80;;;;;;;20.80;64.35;100577.19;4959168;28;20031;-65
2023/10/13 07:14:54;;;;;;;6.45;2.53;;;;;;;20.81;64.55;100556.88;4958988;28;20174;-65
2023/10/13 07:17:23;;;;;;;5.90;2.35;;;;;;;20.80;64.67;100560.50;4958721;28;20082;-66
2023/10/13 07:19:59;;;;;;;7.28;2.50;;;;;;;20.80;64.47;100555.19;4958820;28;20035;-66
2023/10/13 07:22:27;;;;;;;5.28;2.45;;;;;;;20.83;64.85;100544.31;4958805;28;20031;-66
2023/10/13 07:24:53;;;;;;;5.15;2.47;;;;;;;20.80;64.89;100542.78;4958934;28;20113;-65
2023/10/13 07:27:24;;;;;;;6.45;3.28;;;;;;;20.81;64.86;100557.69;4963911;28;20050;-65
2023/10/13 07:30:05;;;;;;;7.63;2.63;;;;;;;20.80;64.96;100544.59;4958374;28;20177;-65
2023/10/13 07:32:33;;;;;;;6.05;2.60;;;;;;;20.81;64.65;100541.81;4958658;28;20055;-65
2023/10/13 07:35:09;;;;;;;7.97;2.55;;;;;;;20.83;65.06;100546.94;4958954;28;20031;-64
2023/10/13 07:37:35;;;;;;;6.93;2.78;;;;;;;20.83;64.66;100549.59;4958171;28;20043;-66
2023/10/13 07:40:00;;;;;;;6.20;2.80;;;;;;;20.85;64.95;100547.63;4958403;28;20035;-67
2023/10/13 07:42:38;;;;;;;4.78;2.53;;;;;;;20.86;64.70;100546.66;4958044;28;20041;-65
2023/10/13 07:45:05;;;;;;;4.88;2.35;;;;;;;20.86;65.19;100536.06;4958383;28;20542;-65
2023/10/13 07:47:32;;;;;;;7.15;2.75;;;;;;;20.86;64.67;100535.22;4958363;28;20125;-67
2023/10/13 07:49:58;;;;;;;8.80;2.90;;;;;;;20.83;65.25;100539.00;4958556;28;20046;-66
2023/10/13 07:52:35;;;;;;;6.32;2.55;;;;;;;20.86;65.07;100538.72;4958410;28;20035;-65
2023/10/13 07:57:35;;;;;;;5.57;2.67;;;;;;;20.89;64.98;100524.34;4957923;28;20151;-65
2023/10/13 08:00:25;;;;;;;6.85;2.65;;;;;;;20.89;65.13;100525.16;4958539;28;20114;-66
2023/10/13 08:03:19;;;;;;;8.25;2.85;;;;;;;20.89;64.75;100519.03;4958208;28;20126;-65
2023/10/13 08:08:37;;;;;;;5.25;2.22;;;;;;;20.91;64.78;100525.84;4956289;28;20130;-64
2023/10/13 08:11:30;;;;;;;7.10;2.47;;;;;;;20.88;65.02;100518.19;4957781;28;20043;-64
2023/10/13 08:14:00;;;;;;;8.40;2.65;;;;;;;20.89;65.11;100519.88;4957440;28;20547;-63
2023/10/13 08:19:20;;;;;;;5.15;2.60;;;;;;;20.87;64.69;100510.41;4958064;28;20053;-64
2023/10/13 08:21:57;;;;;;;6.30;2.40;;;;;;;20.87;64.85;100507.75;4972652;28;20091;-64
2023/10/13 08:27:49;;;;;;;5.40;2.67;;;;;;;20.86;65.17;100501.63;4956471;28;20110;-65
2023/10/13 08:53:26;;;;;;;6.63;2.92;;;;;;;20.40;67.22;100483.06;4960817;28;20092;-63
2023/10/13 08:56:14;;;;;;;9.45;2.75;;;;;;;20.42;66.82;100496.16;4974681;28;20464;-63
2023/10/13 09:01:34;;;;;;;9.48;3.42;;;;;;;20.46;67.22;100485.13;4961158;28;20042;-63
2023/10/13 09:04:34;;;;;;;6.78;2.95;;;;;;;20.47;67.16;100480.66;4961114;28;20110;-66
2023/10/13 09:12:14;;;;;;;6.30;2.85;;;;;;;20.48;67.15;100469.94;4961096;28;20046;-64
2023/10/13 09:14:56;;;;;;;5.72;2.63;;;;;;;20.50;67.24;100467.13;4960773;28;20042;-62
2023/10/13 09:17:35;;;;;;;6.38;2.92;;;;;;;20.52;66.52;100469.63;4960755;28;20117;-63
2023/10/13 09:25:35;;;;;;;6.00;2.97;;;;;;;20.52;67.04;100473.13;4960246;28;20026;-65
2023/10/13 09:28:14;;;;;;;7.15;3.00;;;;;;;20.51;66.86;100473.28;4960495;28;20077;-64
2023/10/13 09:30:52;;;;;;;6.43;3.20;;;;;;;20.51;66.54;100468.81;4960266;28;20049;-64
2023/10/13 09:33:32;;;;;;;6.70;3.03;;;;;;;20.52;66.84;100466.97;4959954;28;20055;-65
2023/10/13 09:36:12;;;;;;;8.80;2.95;;;;;;;20.51;66.61;100468.81;4960422;28;20145;-65
2023/10/13 09:38:40;;;;;;;8.40;3.30;;;;;;;20.54;66.46;100455.28;4960498;28;20494;-63
2023/10/13 09:41:17;;;;;;;9.00;3.63;;;;;;;20.55;66.72;100456.09;4957510;28;20477;-64
2023/10/13 09:43:43;;;;;;;5.88;2.72;;;;;;;20.56;66.60;100455.13;4959320;28;20399;-63
2023/10/13 09:46:17;;;;;;;7.88;2.85;;;;;;;20.55;66.39;100453.44;4958342;28;20039;-63
2023/10/13 09:48:47;;;;;;;8.38;3.50;;;;;;;20.55;66.23;100451.63;4959978;28;20045;-64
2023/10/13 09:51:14;;;;;;;8.32;2.97;;;;;;;20.57;66.15;100443.53;4959892;28;20450;-64
2023/10/13 09:53:49;;;;;;;7.68;3.33;;;;;;;20.56;66.09;100433.94;4959487;28;20031;-66
2023/10/13 09:56:23;;;;;;;10.60;3.42;;;;;;;20.58;66.25;100445.22;4960394;28;20035;-64
2023/10/13 09:59:14;;;;;;;7.20;3.05;;;;;;;20.56;66.28;100434.78;4959407;28;20031;-68
2023/10/13 10:01:50;;;;;;;9.63;3.22;;;;;;;20.57;66.72;100432.94;4961639;28;20097;-66
2023/10/13 10:04:18;;;;;;;8.18;3.53;;;;;;;20.60;66.40;100428.22;4959683;28;20038;-63
2023/10/13 10:06:57;;;;;;;7.45;3.40;;;;;;;20.56;66.55;100416.25;4959644;28;20076;-66
2023/10/13 10:09:37;;;;;;;7.55;3.00;;;;;;;20.58;66.22;100416.91;4959191;28;20044;-65
2023/10/13 10:12:49;;;;;;;8.88;3.83;;;;;;;20.61;66.49;100410.50;4960002;28;20073;-63
2023/10/13 10:15:28;;;;;;;7.55;2.97;;;;;;;20.62;66.26;100418.28;4958084;28;20054;-64
2023/10/13 10:17:54;;;;;;;7.80;3.25;;;;;;;20.64;65.91;100412.88;4959779;28;20072;-63
2023/10/13 10:20:44;;;;;;;6.28;3.20;;;;;;;20.65;65.98;100411.91;4959665;28;20039;-63
2023/10/13 10:23:21;;;;;;;6.68;3.05;;;;;;;20.67;66.16;100403.81;4959331;28;20078;-63
2023/10/13 10:25:51;;;;;;;12.80;3.67;;;;;;;20.69;66.10;100423.00;4959837;28;20957;-65
2023/10/13 10:28:16;;;;;;;7.57;3.47;;;;;;;20.67;66.23;100406.47;4959447;28;20034;-64
2023/10/13 10:30:43;;;;;;;5.57;3.20;;;;;;;20.69;66.39;100394.72;4959361;28;20031;-65
2023/10/13 10:33:12;;;;;;;6.78;3.13;;;;;;;20.73;66.30;100380.19;4958747;28;20051;-67
2023/10/13 10:35:40;;;;;;;12.48;4.00;;;;;;;20.89;65.68;100398.03;4957737;28;20034;-65
2023/10/13 10:40:58;;;;;;;6.88;3.38;;;;;;;21.13;64.55;100397.38;4960363;28;20042;-66
2023/10/13 10:43:29;;;;;;;8.27;3.25;;;;;;;21.17;64.40;100405.84;4958448;28;20042;-65
2023/10/13 10:46:01;;;;;;;8.65;3.97;;;;;;;21.18;64.25;100415.47;4958765;28;20460;-66
2023/10/13 10:48:31;;;;;;;6.35;3.50;;;;;;;21.21;64.56;100399.25;4959595;28;20031;-66
2023/10/13 10:50:58;;;;;;;7.13;3.75;;;;;;;21.23;64.37;100401.75;4959711;28;20403;-65
2023/10/13 10:53:33;;;;;;;9.40;3.70;;;;;;;21.20;64.48;100394.94;4959203;28;20030;-64
2023/10/13 10:56:19;;;;;;;8.98;4.38;;;;;;;21.20;64.85;100394.94;4959504;28;20558;-66
2023/10/13 10:58:48;;;;;;;6.63;3.63;;;;;;;21.17;64.75;100393.44;4958814;28;20050;-67
2023/10/13 11:01:20;;;;;;;7.47;3.72;;;;;;;21.19;64.54;100396.75;4958053;28;20046;-66
2023/10/13 11:03:57;;;;;;;10.23;3.13;;;;;;;21.20;64.75;100400.22;4959992;28;20039;-64
2023/10/13 11:06:26;;;;;;;14.35;3.53;;;;;;;21.20;64.79;100408.19;4959627;28;20038;-66
2023/10/13 11:09:18;;;;;;;8.95;3.67;;;;;;;21.18;64.73;100391.63;4972725;28;20031;-66
2023/10/13 11:11:45;;;;;;;7.60;3.25;;;;;;;21.21;64.92;100393.94;4959571;28;20038;-63
2023/10/13 11:14:22;;;;;;;9.90;4.15;;;;;;;21.19;64.34;100385.34;4958043;28;20475;-65
2023/10/13 11:16:53;;;;;;;8.02;3.30;;;;;;;21.18;64.57;100375.72;4959203;28;20038;-67
2023/10/13 11:19:25;;;;;;;8.45;3.50;;;;;;;21.17;64.51;100374.88;4959454;28;20035;-63
2023/10/13 11:21:54;;;;;;;6.75;3.58;;;;;;;21.16;64.45;100364.44;4959342;28;20476;-68
2023/10/13 11:24:21;;;;;;;8.95;3.58;;;;;;;21.16;64.46;100367.09;4959146;28;20035;-65
2023/10/13 11:26:50;;;;;;;7.75;3.70;;;;;;;21.17;64.22;100358.13;4959015;28;20514;-66
2023/10/13 11:29:19;;;;;;;7.45;3.50;;;;;;;21.19;64.38;100340.28;4958545;28;20112;-69
2023/10/13 11:31:57;;;;;;;9.25;4.20;;;;;;;21.19;64.26;100338.47;4958654;28;20047;-67
2023/10/13 11:34:23;;;;;;;6.95;3.65;;;;;;;21.20;64.12;100332.19;4958947;28;20948;-67
2023/10/13 11:36:48;;;;;;;8.32;4.00;;;;;;;21.23;63.99;100322.25;4958974;28;20031;-64
2023/10/13 11:39:23;;;;;;;6.82;4.07;;;;;;;21.22;64.03;100326.72;4957914;28;20549;-68
2023/10/13 11:41:54;;;;;;;7.70;4.03;;;;;;;21.23;63.96;100316.94;4973173;28;20086;-69
2023/10/13 11:49:18;;;;;;;8.40;4.03;;;;;;;21.19;64.24;100304.00;4958715;28;20126;-67
2023/10/13 11:51:47;;;;;;;9.13;4.28;;;;;;;21.20;64.31;100303.03;4958700;28;20035;-68
2023/10/13 11:54:19;;;;;;;9.38;4.45;;;;;;;21.19;64.06;100304.00;4958517;28;20035;-68
2023/10/13 11:56:45;;;;;;;10.27;4.57;;;;;;;21.22;64.35;100304.69;4958189;28;20065;-66
2023/10/13 11:59:17;;;;;;;14.25;4.88;;;;;;;21.22;64.71;100309.97;4958424;28;20110;-68
2023/10/13 12:04:40;;;;;;;8.48;4.35;;;;;;;21.23;64.53;100290.44;4958978;28;20045;-66
2023/10/13 12:12:20;;;;;;;8.27;4.57;;;;;;;21.27;64.15;100268.78;4958713;28;20094;-66
2023/10/13 12:14:58;;;;;;;9.98;4.65;;;;;;;21.30;64.41;100281.72;4958389;28;20039;-66
2023/10/13 12:17:31;;;;;;;11.02;5.55;;;;;;;21.28;64.61;100281.00;4958930;28;20038;-66
2023/10/13 12:20:09;;;;;;;11.68;5.40;;;;;;;21.16;65.50;100271.72;4951482;28;20063;-65
2023/10/13 12:22:35;;;;;;;11.18;5.30;;;;;;;21.22;65.00;100275.53;4957362;28;20034;-64
2023/10/13 12:25:04;;;;;;;12.13;5.30;;;;;;;21.24;64.93;100281.50;4954567;28;20049;-66
2023/10/13 12:27:45;;;;;;;10.65;5.00;;;;;;;21.26;65.01;100280.34;4957862;28;20038;-64
2023/10/13 12:30:13;;;;;;;8.43;4.53;;;;;;;21.29;64.39;100279.22;4956637;28;20062;-66
2023/10/13 12:32:44;;;;;;;12.52;4.80;;;;;;;21.29;64.21;100280.03;4956864;28;20046;-68
2023/10/13 12:37:38;;;;;;;10.40;5.03;;;;;;;20.98;66.10;100269.97;4946871;28;20134;-68
2023/10/13 12:54:04;;;;;;;12.05;5.35;;;;;;;20.84;66.48;100254.66;4923018;28;20490;-66
2023/10/13 12:56:30;;;;;;;14.32;4.90;;;;;;;20.86;66.55;100267.75;4933413;29;20121;-68
2023/10/13 12:58:56;;;;;;;10.63;5.32;;;;;;;20.83;66.27;100261.75;4921033;28;20500;-66
2023/10/13 13:01:24;;;;;;;13.98;5.78;;;;;;;20.83;66.17;100263.56;4137566;28;10000659;-67
2023/10/13 13:03:55;;;;;;;9.18;5.10;;;;;;;20.84;66.10;100263.41;4995773;28;20030;-64
2023/10/13 13:06:25;;;;;;;8.43;5.07;;;;;;;20.82;65.99;100261.91;4996774;28;20037;-66
2023/10/13 13:08:51;;;;;;;10.02;4.60;;;;;;;20.82;66.25;100262.75;4995956;28;20085;-67
2023/10/13 13:11:17;;;;;;;9.32;4.93;;;;;;;20.82;66.28;100246.00;4996461;28;20025;-66
2023/10/13 13:13:42;;;;;;;12.00;4.87;;;;;;;20.84;65.83;100246.72;4988052;28;20057;-67
2023/10/13 13:16:07;;;;;;;11.20;5.07;;;;;;;20.84;65.99;100244.06;4983577;28;20264;-65
2023/10/13 13:18:34;;;;;;;8.95;4.68;;;;;;;20.83;65.90;100261.75;4995700;28;20136;-67
2023/10/13 13:21:00;;;;;;;10.18;4.90;;;;;;;20.84;65.67;100250.19;4996604;28;20057;-66
2023/10/13 13:23:25;;;;;;;10.70;5.28;;;;;;;20.83;66.08;100245.84;4995813;28;20066;-66
2023/10/13 13:25:52;;;;;;;8.98;4.88;;;;;;;20.83;65.76;100251.16;4995673;28;20061;-67
2023/10/13 13:28:17;;;;;;;13.68;5.30;;;;;;;20.83;65.94;100243.22;4995249;28;20054;-65
2023/10/13 13:30:43;;;;;;;12.57;4.32;;;;;;;20.82;65.95;100232.78;4996006;28;20545;-65
2023/10/13 13:33:11;;;;;;;9.40;4.68;;;;;;;20.89;65.79;100244.41;4994348;28;20110;-68
2023/10/13 13:35:42;;;;;;;10.38;5.53;;;;;;;21.04;65.29;100251.78;4994675;28;20475;-69
2023/10/13 13:38:27;;;;;;;10.20;5.03;;;;;;;21.16;64.73;100258.47;4998680;28;20116;-66
2023/10/13 13:40:54;;;;;;;12.30;4.88;;;;;;;21.25;64.46;100254.81;4998940;28;20026;-67
2023/10/13 13:43:40;;;;;;;12.82;4.78;;;;;;;21.24;64.24;100250.53;4999081;28;20045;-66
2023/10/13 13:46:10;;;;;;;10.52;4.40;;;;;;;21.21;63.93;100242.91;4998893;28;20034;-63
2023/10/13 13:48:37;;;;;;;15.52;4.72;;;;;;;21.27;63.99;100242.28;4999502;28;20021;-63
2023/10/13 13:51:14;;;;;;;10.80;4.72;;;;;;;21.30;63.67;100254.34;4999423;28;20489;-63
2023/10/13 13:53:45;;;;;;;10.18;4.65;;;;;;;21.33;63.64;100235.47;4999464;28;20040;-63
2023/10/13 13:56:15;;;;;;;10.07;4.80;;;;;;;21.37;63.53;100244.78;4997890;28;20486;-65
2023/10/13 13:58:43;;;;;;;13.75;5.20;;;;;;;21.37;63.20;100226.22;4995993;28;20433;-64
2023/10/13 14:01:25;;;;;;;11.75;5.25;;;;;;;21.34;63.07;100235.31;5004429;28;20097;-64
2023/10/13 14:03:52;;;;;;;8.93;4.53;;;;;;;21.36;63.46;100225.41;4998980;28;20135;-64
2023/10/13 14:06:27;;;;;;;12.10;5.00;;;;;;;21.36;63.13;100238.66;4998200;28;20462;-62
2023/10/13 14:08:59;;;;;;;9.30;4.07;;;;;;;21.37;63.39;100228.88;4998477;28;20038;-63
2023/10/13 14:16:52;;;;;;;8.02;4.50;;;;;;;21.40;63.01;100233.03;4997717;28;20574;-64
2023/10/13 14:19:27;;;;;;;11.38;4.78;;;;;;;21.36;63.18;100238.66;5027933;28;20027;-63
2023/10/13 14:21:55;;;;;;;9.23;4.57;;;;;;;21.36;62.96;100249.28;4997878;28;20054;-64
2023/10/13 14:24:27;;;;;;;10.13;4.47;;;;;;;21.34;63.20;100224.72;4996069;28;20040;-65
2023/10/13 14:27:08;;;;;;;8.90;4.22;;;;;;;21.32;63.17;100226.72;4995658;28;20405;-64
2023/10/13 14:29:42;;;;;;;10.70;4.78;;;;;;;21.32;63.30;100233.84;4998104;28;20368;-65
2023/10/13 14:32:13;;;;;;;9.93;4.50;;;;;;;21.31;63.28;100230.34;4997219;28;20479;-66
2023/10/13 14:34:43;;;;;;;8.60;4.57;;;;;;;21.30;63.04;100246.41;4996207;28;20466;-62
2023/10/13 14:37:12;;;;;;;10.18;4.35;;;;;;;21.29;63.11;100237.63;4997614;28;20100;-65
2023/10/13 14:39:38;;;;;;;9.40;4.45;;;;;;;21.25;63.06;100235.47;4998771;28;20041;-64
2023/10/13 14:42:05;;;;;;;11.48;5.13;;;;;;;21.24;63.23;100244.38;4997724;28;20163;-62
2023/10/13 14:44:31;;;;;;;12.85;5.32;;;;;;;21.25;62.96;100236.28;4997556;28;20133;-63
2023/10/13 14:46:57;;;;;;;8.85;4.65;;;;;;;21.22;63.45;100241.06;4996286;28;20046;-64
2023/10/13 14:49:22;;;;;;;12.98;5.35;;;;;;;21.23;63.54;100243.56;4996587;28;20033;-67
2023/10/13 14:51:49;;;;;;;8.43;4.18;;;;;;;21.23;63.27;100254.16;5002080;28;20499;-65
2023/10/13 14:54:15;;;;;;;11.88;4.72;;;;;;;21.21;62.90;100245.56;4997700;28;20049;-64
2023/10/13 14:56:42;;;;;;;8.43;4.60;;;;;;;21.19;63.63;100251.00;4997818;28;20033;-66
2023/10/13 14:59:14;;;;;;;9.27;3.90;;;;;;;21.19;63.21;100237.78;4996761;28;20367;-67
2023/10/13 15:01:40;;;;;;;10.52;4.65;;;;;;;21.20;63.23;100234.13;4996935;28;20030;-67
2023/10/13 15:04:05;;;;;;;8.90;4.32;;;;;;;21.21;63.33;100237.59;4997017;28;20488;-66
2023/10/13 15:06:31;;;;;;;8.98;5.45;;;;;;;21.17;63.01;100229.16;4997095;28;20044;-63
2023/10/13 15:08:57;;;;;;;11.07;4.65;;;;;;;21.17;63.22;100234.44;4998468;28;20046;-64
2023/10/13 15:11:27;;;;;;;9.80;4.28;;;;;;;21.19;63.51;100231.66;4997010;28;20402;-64
2023/10/13 15:13:56;;;;;;;9.20;4.55;;;;;;;21.17;63.12;100242.41;4997065;28;20043;-63
2023/10/13 15:16:23;;;;;;;7.55;4.35;;;;;;;21.17;63.47;100236.25;4997440;28;20101;-66
2023/10/13 15:18:53;;;;;;;9.32;4.55;;;;;;;21.14;63.37;100226.81;4994809;28;20413;-65
2023/10/13 15:21:32;;;;;;;9.48;4.20;;;;;;;21.13;63.43;100230.44;4997722;28;20073;-63
2023/10/13 15:24:03;;;;;;;9.23;4.55;;;;;;;21.17;63.67;100218.56;4997137;28;20042;-66